createdAt,value
2023-05-05T00:01:23.047Z,101087.85462737367
2023-05-05T00:04:22.763Z,101094.06185778049
2023-05-05T00:07:19.199Z,101094.72516301653
2023-05-05T00:10:14.728Z,101091.30864279195
2023-05-05T00:13:11.455Z,101089.44089348981
2023-05-05T00:16:07.854Z,101084.86894959821
2023-05-05T00:19:06.410Z,101082.16833410627
2023-05-05T00:22:03.013Z,101087.84707345553
2023-05-05T00:24:58.511Z,101083.61900884681
2023-05-05T00:27:54.069Z,101084.29258600228
2023-05-05T00:30:50.729Z,101092.01609228269
2023-05-05T00:33:46.265Z,101090.13623223965
2023-05-05T00:36:41.762Z,101086.32605514204
2023-05-05T00:39:37.311Z,101088.32789245827
2023-05-05T00:42:37.872Z,101090.25744381356
2023-05-05T00:45:33.449Z,101081.36001035954
2023-05-05T00:48:32.003Z,101087.16075679351
2023-05-05T00:51:28.581Z,101083.2785753678
2023-05-05T00:54:26.105Z,101081.19690614022
2023-05-05T00:57:23.685Z,101085.89249967581
2023-05-05T01:00:23.212Z,101080.5014235165
2023-05-05T01:03:18.910Z,101073.12353138237
2023-05-05T01:06:26.308Z,101072.87554234543
2023-05-05T01:09:32.851Z,101068.6077743843
2023-05-05T01:12:37.434Z,101071.33900121553
2023-05-05T01:15:41.954Z,101068.41528997938
2023-05-05T01:18:45.422Z,101075.60058605099
2023-05-05T01:21:47.016Z,101071.08662661587
2023-05-05T01:24:54.556Z,101068.39937437532
2023-05-05T01:28:03.089Z,101065.51231888679
2023-05-05T01:31:14.622Z,101063.11510677845
2023-05-05T01:34:17.138Z,101064.96986659839
2023-05-05T01:37:18.658Z,101064.63058837052
2023-05-05T01:40:16.254Z,101065.03550507544
2023-05-05T01:43:17.804Z,101061.0161209317
2023-05-05T01:46:16.484Z,101058.3809221575
2023-05-05T01:49:13.893Z,101058.84367919811
2023-05-05T01:52:11.481Z,101058.10943114254
2023-05-05T01:55:08.030Z,101063.55704665782
2023-05-05T01:58:05.568Z,101061.25878220284
2023-05-05T02:01:02.274Z,101067.99316957576
2023-05-05T02:04:01.824Z,101058.42928905379
2023-05-05T02:07:01.231Z,101061.76871066757
2023-05-05T02:09:59.795Z,101064.20564382148
2023-05-05T02:12:56.439Z,101059.30076910039
2023-05-05T02:15:53.910Z,101061.76730860892
2023-05-05T02:18:51.459Z,101056.22651193329
2023-05-05T02:21:48.979Z,101057.51414466022
2023-05-05T02:24:44.575Z,101055.97632467096
2023-05-05T02:27:44.126Z,101051.76278279956
2023-05-05T02:30:43.797Z,101058.50129628395
2023-05-05T02:33:43.257Z,101055.92015874616
2023-05-05T02:36:44.798Z,101051.62162113147
2023-05-05T02:39:51.330Z,101048.10476323664
2023-05-05T02:42:52.903Z,101043.34143762077
2023-05-05T02:45:50.430Z,101040.21321579354
2023-05-05T02:48:46.007Z,101042.75069595012
2023-05-05T02:51:41.530Z,101044.4839864702
2023-05-05T02:54:37.128Z,101046.36202216806
2023-05-05T02:57:36.657Z,101050.41821487874
2023-05-05T03:00:41.194Z,101053.13564509132
2023-05-05T03:03:49.920Z,101055.7383699113
2023-05-05T03:06:51.295Z,101052.8072187116
2023-05-05T03:09:54.820Z,101057.16487518078
2023-05-05T03:12:54.354Z,101059.90502304083
2023-05-05T03:15:52.917Z,101060.94095794948
2023-05-05T03:18:50.443Z,101064.64559546766
2023-05-05T03:21:48.032Z,101066.4816414189
2023-05-05T03:24:49.644Z,101062.5504575681
2023-05-05T03:27:45.129Z,101072.07711427094
2023-05-05T03:30:42.701Z,101073.83314070496
2023-05-05T03:33:39.247Z,101073.20482748692
2023-05-05T03:36:35.838Z,101077.35357578567
2023-05-05T03:39:31.361Z,101078.69219169294
2023-05-05T03:42:26.902Z,101075.88346530708
2023-05-05T03:45:24.490Z,101082.71534419496
2023-05-05T03:48:20.048Z,101086.28495355137
2023-05-05T03:51:16.615Z,101080.69344614714
2023-05-05T03:54:13.216Z,101082.76763520074
2023-05-05T03:57:08.733Z,101081.60870560628
2023-05-05T04:00:05.386Z,101083.31072520219
2023-05-05T04:03:00.998Z,101083.4852142209
2023-05-05T04:05:56.421Z,101083.53678731475
2023-05-05T04:08:51.943Z,101095.37621495411
2023-05-05T04:11:47.518Z,101099.83783393186
2023-05-05T04:14:43.134Z,101100.31626402483
2023-05-05T04:17:38.727Z,101098.09920850383
2023-05-05T04:20:36.221Z,101098.13681591592
2023-05-05T04:23:32.057Z,101099.04236391943
2023-05-05T04:26:27.345Z,101105.64367670522
2023-05-05T04:29:22.926Z,101108.35973531303
2023-05-05T04:32:18.457Z,101114.71783184959
2023-05-05T04:35:14.046Z,101115.22311613389
2023-05-05T04:38:09.557Z,101117.49571960137
2023-05-05T04:41:06.176Z,101108.84009131273
2023-05-05T04:44:01.765Z,101116.27684037745
2023-05-05T04:46:57.538Z,101116.4780478927
2023-05-05T04:49:53.819Z,101117.65147400172
2023-05-05T04:52:51.415Z,101118.73866830277
2023-05-05T04:55:47.956Z,101121.0291118005
2023-05-05T04:58:43.502Z,101121.66714795979
2023-05-05T05:01:39.143Z,101118.01296957847
2023-05-05T05:04:34.642Z,101115.6174151434
2023-05-05T05:07:31.217Z,101116.48808677871
2023-05-05T05:10:27.750Z,101119.70172903546
2023-05-05T05:13:23.332Z,101119.53894985402
2023-05-05T05:16:18.922Z,101119.6141682449
2023-05-05T05:19:14.488Z,101124.13260603583
2023-05-05T05:22:09.980Z,101128.427181178
2023-05-05T05:25:06.567Z,101124.68876048125
2023-05-05T05:28:10.138Z,101132.88694839372
2023-05-05T05:31:02.653Z,101128.9477731468
2023-05-05T05:33:58.207Z,101125.73198515085
2023-05-05T05:36:53.739Z,101131.79507564977
2023-05-05T05:39:52.354Z,101129.80496160984
2023-05-05T05:42:47.890Z,101135.82348033716
2023-05-05T05:45:43.503Z,101141.11128267161
2023-05-05T05:48:39.085Z,101145.73828200251
2023-05-05T05:51:34.610Z,101142.77840960205
2023-05-05T05:54:34.142Z,101147.77031639683
2023-05-05T05:57:30.733Z,101146.83229588524
2023-05-05T06:00:27.263Z,101151.33230102759
2023-05-05T06:03:23.104Z,101149.7407243881
2023-05-05T06:06:18.430Z,101145.66305799145
2023-05-05T06:09:13.945Z,101141.43358126264
2023-05-05T06:12:09.535Z,101141.55911279922
2023-05-05T06:15:06.046Z,101138.09577708843
2023-05-05T06:18:01.676Z,101142.31814702474
2023-05-05T06:20:57.175Z,101149.88233590873
2023-05-05T06:23:53.751Z,101149.06672735137
2023-05-05T06:26:49.285Z,101142.9292758036
2023-05-05T06:29:44.872Z,101141.51939899765
2023-05-05T06:32:40.476Z,101144.39536672624
2023-05-05T06:35:35.989Z,101138.62486354174
2023-05-05T06:38:32.526Z,101140.43043149204
2023-05-05T06:41:30.109Z,101147.03368153481
2023-05-05T06:44:25.677Z,101143.87519058851
2023-05-05T06:47:22.218Z,101149.65108552936
2023-05-05T06:50:17.788Z,101143.83278417877
2023-05-05T06:53:13.340Z,101145.7101231912
2023-05-05T06:56:08.863Z,101145.45552054826
2023-05-05T06:59:04.452Z,101148.6593593274
2023-05-05T07:02:00.037Z,101153.3918083911
2023-05-05T07:04:55.683Z,101147.34572401781
2023-05-05T07:07:52.181Z,101150.50766608813
2023-05-05T07:10:47.761Z,101158.0592880864
2023-05-05T07:13:43.258Z,101155.10017427077
2023-05-05T07:16:38.887Z,101162.8527797861
2023-05-05T07:19:37.395Z,101159.05486292386
2023-05-05T07:22:32.920Z,101151.90275587606
2023-05-05T07:25:28.536Z,101150.71714565225
2023-05-05T07:28:24.101Z,101147.36192982733
2023-05-05T07:31:21.632Z,101151.40925946126
2023-05-05T07:34:17.166Z,101152.54749947945
2023-05-05T07:37:13.745Z,101142.30898603596
2023-05-05T07:40:10.678Z,101140.4842590691
2023-05-05T07:43:05.882Z,101142.50808639226
2023-05-05T07:46:01.498Z,101138.91166367421
2023-05-05T07:48:57.993Z,101140.48446690007
2023-05-05T07:51:55.529Z,101141.93967226859
2023-05-05T07:54:51.100Z,101135.53203747563
2023-05-05T07:57:47.677Z,101135.40718253981
2023-05-05T08:00:45.226Z,101136.01784429682
2023-05-05T08:03:40.898Z,101138.04798973774
2023-05-05T08:06:39.348Z,101134.8382809166
2023-05-05T08:09:35.902Z,101142.12585087723
2023-05-05T08:12:32.473Z,101136.7901472702
2023-05-05T08:15:28.030Z,101139.2264134725
2023-05-05T08:18:24.634Z,101144.76215392166
2023-05-05T08:21:21.153Z,101138.82745538026
2023-05-05T08:24:16.702Z,101141.1083354594
2023-05-05T08:27:13.274Z,101138.92713893473
2023-05-05T08:30:09.859Z,101139.58105922984
2023-05-05T08:33:05.430Z,101144.60842203512
2023-05-05T08:36:00.944Z,101140.48525991292
2023-05-05T08:38:56.529Z,101146.83516205045
2023-05-05T08:41:53.021Z,101140.67590010265
2023-05-05T08:44:48.632Z,101148.45234414701
2023-05-05T08:47:47.176Z,101135.73215142301
2023-05-05T08:50:47.713Z,101142.15176768365
2023-05-05T08:53:52.240Z,101140.11383458092
2023-05-05T08:56:50.868Z,101141.4243278376
2023-05-05T08:59:48.335Z,101138.83709484166
2023-05-05T09:02:47.048Z,101136.40977659618
2023-05-05T09:05:43.484Z,101126.79606816823
2023-05-05T09:08:41.050Z,101133.77164276874
2023-05-05T09:11:37.613Z,101129.07034883488
2023-05-05T09:14:33.205Z,101135.58450356929
2023-05-05T09:17:29.728Z,101125.06720366608
2023-05-05T09:20:34.246Z,101121.86823577396
2023-05-05T09:23:29.804Z,101119.65443418884
2023-05-05T09:26:32.389Z,101117.4094898581
2023-05-05T09:29:28.919Z,101119.88177285087
2023-05-05T09:32:47.518Z,101113.31135476875
2023-05-05T09:35:48.984Z,101121.71771890084
2023-05-05T09:38:52.520Z,101115.72802956951
2023-05-05T09:41:53.078Z,101119.26431515372
2023-05-05T09:44:48.645Z,101109.88872240346
2023-05-05T09:47:46.271Z,101116.05654137861
2023-05-05T09:50:43.849Z,101108.78217541559
2023-05-05T09:53:42.349Z,101106.83504445684
2023-05-05T09:56:39.873Z,101115.19329285921
2023-05-05T09:59:47.380Z,101105.69652904052
2023-05-05T10:02:47.973Z,101107.3121116826
2023-05-05T10:05:50.605Z,101105.33705439718
2023-05-05T10:08:51.040Z,101098.78708465937
2023-05-05T10:11:47.567Z,101099.2285408847
2023-05-05T10:14:50.068Z,101089.62943689681
2023-05-05T10:17:54.277Z,101097.42471533503
2023-05-05T10:20:55.194Z,101095.75061622832
2023-05-05T10:23:57.798Z,101087.5390417642
2023-05-05T10:26:57.338Z,101085.36834057065
2023-05-05T10:30:02.810Z,101086.4672928504
2023-05-05T10:33:22.211Z,101077.25192315216
2023-05-05T10:36:08.927Z,101082.10627288208
2023-05-05T10:39:09.538Z,101080.21582873532
2023-05-05T10:42:06.053Z,101075.98574802525
2023-05-05T10:45:04.578Z,101076.9321703663
2023-05-05T10:48:04.234Z,101072.00186157812
2023-05-05T10:51:11.698Z,101060.13577166626
2023-05-05T10:54:16.214Z,101056.88510825536
2023-05-05T10:57:14.789Z,101047.23019495164
2023-05-05T11:00:18.310Z,101050.28361876842
2023-05-05T11:03:19.948Z,101046.14765349453
2023-05-05T11:06:20.422Z,101044.04094582747
2023-05-05T11:09:20.958Z,101040.0876811887
2023-05-05T11:12:27.498Z,101036.84265394029
2023-05-05T11:15:37.022Z,101033.77840293579
2023-05-05T11:18:35.592Z,101024.05105607375
2023-05-05T11:21:44.915Z,101022.79912070623
2023-05-05T11:24:46.675Z,101027.53732796588
2023-05-05T11:27:54.192Z,101029.03287195107
2023-05-05T11:31:00.778Z,101020.90022202088
2023-05-05T11:34:07.265Z,101014.43357001088
2023-05-05T11:37:11.767Z,101005.52431454713
2023-05-05T11:40:19.340Z,101006.12179554201
2023-05-05T11:43:18.854Z,101005.65846401316
2023-05-05T11:46:16.473Z,101002.14828312017
2023-05-05T11:49:23.973Z,100997.31280069961
2023-05-05T11:52:27.544Z,100990.50266803787
2023-05-05T11:55:23.058Z,100989.90334128383
2023-05-05T11:58:18.650Z,100986.1349920007
2023-05-05T12:01:14.188Z,100984.47549902825
2023-05-05T12:04:11.912Z,100975.62340884798
2023-05-05T12:07:07.276Z,100975.9461654756
2023-05-05T12:10:02.856Z,100978.84309392572
2023-05-05T12:13:11.475Z,100974.66769690419
2023-05-05T12:16:08.978Z,100966.04167824503
2023-05-05T12:19:05.515Z,100974.81959368757
2023-05-05T12:22:01.074Z,100967.81452237301
2023-05-05T12:24:57.628Z,100963.39766168084
2023-05-05T12:27:54.137Z,100966.08401550818
2023-05-05T12:30:56.788Z,100959.47553416809
2023-05-05T12:33:53.301Z,100953.10971510957
2023-05-05T12:36:49.805Z,100955.90866580274
2023-05-05T12:39:45.375Z,100955.96801219165
2023-05-05T12:42:40.962Z,100953.68841062086
2023-05-05T12:45:37.556Z,100951.49950059831
2023-05-05T12:48:34.099Z,100952.55094150131
2023-05-05T12:51:35.654Z,100942.50891175387
2023-05-05T12:54:40.200Z,100934.14190940645
2023-05-05T12:57:46.714Z,100934.7663069162
2023-05-05T13:00:46.296Z,100939.66547213691
2023-05-05T13:03:46.819Z,100931.39833563987
2023-05-05T13:06:58.338Z,100925.6900726893
2023-05-05T13:10:00.892Z,100921.40500683269
2023-05-05T13:12:57.483Z,100918.58746860096
2023-05-05T13:15:53.048Z,100912.13478778997
2023-05-05T13:18:49.576Z,100906.41555466925
2023-05-05T13:21:45.102Z,100898.309739355
2023-05-05T13:24:50.988Z,100895.20159280444
2023-05-05T13:27:41.245Z,100896.86714156419
2023-05-05T13:30:37.782Z,100897.18130886606
2023-05-05T13:33:35.372Z,100887.73512665577
2023-05-05T13:36:30.914Z,100885.99511179734
2023-05-05T13:39:26.445Z,100877.09370244746
2023-05-05T13:42:22.047Z,100883.79038313517
2023-05-05T13:45:19.581Z,100881.99314810526
2023-05-05T13:48:16.138Z,100875.17077907601
2023-05-05T13:51:11.749Z,100869.88951197364
2023-05-05T13:54:07.286Z,100875.69260445629
2023-05-05T13:57:02.824Z,100874.2935885165
2023-05-05T13:59:58.401Z,100871.6925136727
2023-05-05T14:02:54.974Z,100876.72634278494
2023-05-05T14:05:51.536Z,100868.43912564547
2023-05-05T14:08:47.065Z,100873.58404990072
2023-05-05T14:11:42.656Z,100860.93931909227
2023-05-05T14:14:38.196Z,100861.10046453765
2023-05-05T14:17:33.774Z,100862.48904423538
2023-05-05T14:20:29.384Z,100853.33460905742
2023-05-05T14:23:25.889Z,100859.48953114093
2023-05-05T14:26:21.466Z,100849.85871301792
2023-05-05T14:29:18.048Z,100849.21560520804
2023-05-05T14:32:13.652Z,100844.35839291174
2023-05-05T14:35:09.263Z,100845.16961671688
2023-05-05T14:38:04.744Z,100838.50876844296
2023-05-05T14:41:02.224Z,100839.55690901823
2023-05-05T14:43:58.804Z,100841.96586294363
2023-05-05T14:46:54.367Z,100843.29746517145
2023-05-05T14:49:50.947Z,100838.1081449075
2023-05-05T14:52:47.466Z,100837.42593821179
2023-05-05T14:55:44.051Z,100839.0158916576
2023-05-05T14:58:39.614Z,100844.15141680597
2023-05-05T15:01:36.229Z,100841.4058323022
2023-05-05T15:04:31.724Z,100840.01913902267
2023-05-05T15:07:29.278Z,100838.74674851832
2023-05-05T15:10:25.833Z,100841.92781910232
2023-05-05T15:13:22.444Z,100839.11641152465
2023-05-05T15:16:17.980Z,100842.03934870547
2023-05-05T15:19:13.481Z,100836.63629371348
2023-05-05T15:22:09.047Z,100827.43695658931
2023-05-05T15:25:08.987Z,100837.37988757611
2023-05-05T15:28:05.201Z,100835.82492008335
2023-05-05T15:31:01.791Z,100840.56122838467
2023-05-05T15:33:57.305Z,100841.70899211358
2023-05-05T15:36:56.868Z,100841.46772298876
2023-05-05T15:39:54.406Z,100836.70475149191
2023-05-05T15:42:50.998Z,100834.66916450116
2023-05-05T15:45:46.578Z,100834.78929937011
2023-05-05T15:48:42.108Z,100829.31531728062
2023-05-05T15:51:37.830Z,100827.95294124458
2023-05-05T15:54:33.244Z,100828.82583454713
2023-05-05T15:57:28.798Z,100825.42487136828
2023-05-05T16:00:25.350Z,100824.12137205298
2023-05-05T16:03:20.973Z,100821.26285902048
2023-05-05T16:06:16.477Z,100813.0606407724
2023-05-05T16:09:12.010Z,100808.06056943235
2023-05-05T16:12:08.568Z,100802.71353494561
2023-05-05T16:15:05.144Z,100799.34410663202
2023-05-05T16:18:00.718Z,100802.92752347578
2023-05-05T16:20:56.276Z,100800.2471620864
2023-05-05T16:23:51.835Z,100806.87229038267
2023-05-05T16:26:48.355Z,100804.83153279466
2023-05-05T16:29:43.962Z,100800.43230409769
2023-05-05T16:32:39.518Z,100804.42572302124
2023-05-05T16:35:36.107Z,100808.4720369185
2023-05-05T16:38:31.627Z,100800.37571907755
2023-05-05T16:41:28.222Z,100804.16293829179
2023-05-05T16:44:28.775Z,100803.85568100275
2023-05-05T16:47:25.377Z,100802.05160145208
2023-05-05T16:50:20.842Z,100802.41440955455
2023-05-05T16:53:16.418Z,100798.39861705858
2023-05-05T16:56:12.967Z,100800.22636769735
2023-05-05T16:59:08.583Z,100800.950768216
2023-05-05T17:02:06.112Z,100789.85839189768
2023-05-05T17:05:01.694Z,100791.10617310565
2023-05-05T17:07:57.235Z,100785.75778078054
2023-05-05T17:10:52.796Z,100793.501006705
2023-05-05T17:13:48.293Z,100796.06199620418
2023-05-05T17:16:43.915Z,100799.3941679724
2023-05-05T17:19:39.497Z,100794.85631536401
2023-05-05T17:22:36.045Z,100787.88519971742
2023-05-05T17:25:31.607Z,100795.12712602779
2023-05-05T17:28:27.144Z,100794.63689788309
2023-05-05T17:31:22.778Z,100796.4706512243
2023-05-05T17:34:18.297Z,100795.89695552169
2023-05-05T17:37:13.861Z,100798.11753725044
2023-05-05T17:40:10.424Z,100803.4050082327
2023-05-05T17:43:06.959Z,100798.18499054176
2023-05-05T17:46:02.636Z,100798.72779839626
2023-05-05T17:48:58.114Z,100803.39940687988
2023-05-05T17:51:53.598Z,100797.28966072734
2023-05-05T17:54:50.236Z,100798.89444444748
2023-05-05T17:57:46.734Z,100806.16583898173
2023-05-05T18:00:42.326Z,100806.60272607965
2023-05-05T18:03:40.679Z,100808.81283938467
2023-05-05T18:06:36.408Z,100804.77123620058
2023-05-05T18:09:32.017Z,100810.81333069308
2023-05-05T18:12:27.511Z,100808.36033315446
2023-05-05T18:15:23.097Z,100807.8968302939
2023-05-05T18:18:18.709Z,100813.80665050849
2023-05-05T18:21:15.242Z,100814.74047777487
2023-05-05T18:24:19.490Z,100820.68579004366
2023-05-05T18:27:12.349Z,100815.425245975
2023-05-05T18:30:08.908Z,100823.56385282706
2023-05-05T18:33:04.560Z,100823.59648806986
2023-05-05T18:36:01.075Z,100820.12697735167
2023-05-05T18:38:56.572Z,100817.92453138452
2023-05-05T18:41:53.149Z,100822.94505675457
2023-05-05T18:44:49.712Z,100826.38005349957
2023-05-05T18:47:45.336Z,100823.050849138
2023-05-05T18:50:41.828Z,100826.84925723789
2023-05-05T18:53:37.395Z,100823.34971219595
2023-05-05T18:56:32.979Z,100823.74697297098
2023-05-05T18:59:28.486Z,100823.38974459372
2023-05-05T19:02:24.065Z,100826.43107180139
2023-05-05T19:05:20.656Z,100834.46082959091
2023-05-05T19:08:16.202Z,100836.5121006682
2023-05-05T19:11:14.804Z,100836.51582977426
2023-05-05T19:14:11.278Z,100831.99446198915
2023-05-05T19:17:06.943Z,100832.67592555011
2023-05-05T19:20:02.391Z,100833.97526723307
2023-05-05T19:23:02.979Z,100830.96325819047
2023-05-05T19:25:58.545Z,100827.3597883959
2023-05-05T19:28:55.117Z,100831.99446198915
2023-05-05T19:31:50.873Z,100825.8439932789
2023-05-05T19:34:46.232Z,100834.34142508633
2023-05-05T19:37:41.797Z,100839.86993789986
2023-05-05T19:40:38.303Z,100836.26260900685
2023-05-05T19:43:33.905Z,100834.10875681817
2023-05-05T19:46:29.575Z,100829.86275864729
2023-05-05T19:49:25.003Z,100827.75178677928
2023-05-05T19:52:22.684Z,100832.18514793515
2023-05-05T19:55:18.159Z,100834.78113996612
2023-05-05T19:58:13.704Z,100832.88090958813
2023-05-05T20:01:09.342Z,100829.43041643882
2023-05-05T20:04:04.802Z,100831.73876828424
2023-05-05T20:07:00.380Z,100829.23293856352
2023-05-05T20:09:56.178Z,100825.46005582286
2023-05-05T20:12:53.575Z,100826.11897404485
2023-05-05T20:15:51.069Z,100820.7992028484
2023-05-05T20:18:46.666Z,100821.48960997767
2023-05-05T20:21:42.199Z,100822.4247520345
2023-05-05T20:24:38.786Z,100821.02853759567
2023-05-05T20:27:36.016Z,100826.15010973919
2023-05-05T20:30:32.863Z,100819.94279765917
2023-05-05T20:33:29.457Z,100815.16545494564
2023-05-05T20:36:26.009Z,100815.37587707842
2023-05-05T20:39:23.510Z,100807.32847780662
2023-05-05T20:42:19.121Z,100807.29501843176
2023-05-05T20:45:15.685Z,100807.26153590648
2023-05-05T20:48:11.630Z,100808.69900348934
2023-05-05T20:51:08.787Z,100808.73617226184
2023-05-05T20:54:05.417Z,100807.47385527517
2023-05-05T20:57:02.921Z,100810.20317544286
2023-05-05T20:59:59.460Z,100810.57824932956
2023-05-05T21:02:57.261Z,100807.54250888922
2023-05-05T21:05:52.632Z,100807.64300902645
2023-05-05T21:08:48.155Z,100816.95603184866
2023-05-05T21:11:43.684Z,100818.48898398345
2023-05-05T21:14:42.228Z,100818.949717519
2023-05-05T21:17:37.844Z,100820.13996216327
2023-05-05T21:20:35.396Z,100825.67858878298
2023-05-05T21:23:30.942Z,100824.3268736932
2023-05-05T21:26:26.528Z,100828.29566838354
2023-05-05T21:29:24.065Z,100827.44438054343
2023-05-05T21:32:19.731Z,100822.05511711027
2023-05-05T21:35:15.186Z,100818.06638687688
2023-05-05T21:38:11.750Z,100820.86810326562
2023-05-05T21:41:07.304Z,100816.43782355628
2023-05-05T21:44:02.858Z,100812.51811823524
2023-05-05T21:46:59.437Z,100809.92981974268
2023-05-05T21:49:54.992Z,100818.50205969407
2023-05-05T21:52:51.514Z,100813.10066020102
2023-05-05T21:55:48.067Z,100806.22518266177
2023-05-05T21:58:44.638Z,100809.6253018708
2023-05-05T22:01:40.330Z,100806.70655180511
2023-05-05T22:04:35.776Z,100804.08126572106
2023-05-05T22:07:33.054Z,100803.59132535702
2023-05-05T22:10:28.930Z,100802.03235399853
2023-05-05T22:13:24.485Z,100805.08767180379
2023-05-05T22:16:21.089Z,100809.02004083066
2023-05-05T22:19:17.583Z,100801.29643377048
2023-05-05T22:22:13.122Z,100794.89295472908
2023-05-05T22:25:09.897Z,100798.39123507905
2023-05-05T22:28:05.269Z,100793.74130624776
2023-05-05T22:31:01.803Z,100799.85594474553
2023-05-05T22:33:58.390Z,100789.95719863153
2023-05-05T22:36:55.963Z,100788.12553709686
2023-05-05T22:39:52.485Z,100793.87463224631
2023-05-05T22:42:48.033Z,100787.044109364
2023-05-05T22:45:45.629Z,100789.59102872257
2023-05-05T22:48:41.149Z,100782.94742821256
2023-05-05T22:51:37.753Z,100781.23267663893
2023-05-05T22:54:33.289Z,100780.47101821972
2023-05-05T22:57:28.842Z,100778.28331514786
2023-05-05T23:00:25.441Z,100780.95478962273
2023-05-05T23:03:20.969Z,100774.25978243152
2023-05-05T23:06:16.529Z,100774.82392641169
2023-05-05T23:09:13.099Z,100781.68758930935
2023-05-05T23:12:08.637Z,100779.83122924872
2023-05-05T23:15:05.276Z,100781.16329144365
2023-05-05T23:18:00.821Z,100778.85984292721
2023-05-05T23:20:56.354Z,100777.80714948963
2023-05-05T23:23:51.932Z,100778.27298209336
2023-05-05T23:26:47.477Z,100774.98170195156
2023-05-05T23:29:43.026Z,100771.73876296377
2023-05-05T23:32:38.571Z,100773.20624113425
2023-05-05T23:35:34.100Z,100776.40621720682
2023-05-05T23:38:29.714Z,100775.26978736199
2023-05-05T23:41:25.273Z,100777.20105044438
2023-05-05T23:44:20.823Z,100781.90287050995
2023-05-05T23:47:16.407Z,100783.48218788892
2023-05-05T23:50:11.952Z,100783.36408453659
2023-05-05T23:53:07.553Z,100782.40594379413
2023-05-05T23:56:03.030Z,100779.17887865531
2023-05-05T23:58:58.610Z,100775.55319645058
